Startpagina
METAR-TAF:

METAR-TAF

Vliegvelden :

Gilze-Rijen, Nederland

Vliegbasis Gilze-Rijen

breedte: 51-34N, lengte: 004-56E, hoogte: 15 m

Actueel weer

Dit bericht is 10 minuten geleden gemaakt, om 09:55 UTC
Wind 6 kt uit het zuiden, variërend tussen het zuidoosten en het zuiden
Temperatuur 1°C
Vochtigheid 86%
Druk 1019 hPa
Zicht 10 km of meer
geen wolken onder 1500 m en geen cumulonimbus
nevel

METAR: EHGR 190955Z AUTO 17007KT 130V190 8000 BR SCT066 OVC073 01/M01 Q1019 BLU 17006KT CAVOK

Tijdstip: 11:05 (10:05 UTC)

Verwachting

Dit bericht is 4 uur en het 31 minuten geleden gemaakt, om 05:34 UTC
Verwachting geldig van 19 om 06 UTC tot 19 om 18 UTC
Wind 5 kt uit het zuiden
Zicht: 6000 m

TAF: EHGR 190534Z 1906/1918 18005KT 6000 NSC

Waarnemingen en weersverwachtingen van meer dan 4000 vliegvelden (METAR en TAF).

De beschikbare stations zijn de gele en rode punten op de kaart.

Ga met uw muis naar het station om de naam te zien.

Klik dan om waarnemingen en weersverwachtingen te zien.

kaart wijzigen: klik op de groene knoppen met een zwart kruis om in te zoomen, op de groene knop met een streepje om uit te zoomen of op de groene pijlen voor aangrenzende kaarten.


METAR-TAF: